South Mason Valley, Nevada Weather observations

Data are for 10 minute period ending at time listed.
 Day   Time   Solar   Ave.   Ave.  Ave.  Vector  Max.   Baro.   Total    
  of    of     Rad.   Air    Rel.  Wind   Wind   Wind  Press.  Precip.   
Year   Day            Temp.  Hum.  Speed  Dir.   Gust                    
2014   (PST)  Kw/m2    F      %     mph   deg.    mph    mb.     in.     
-------------------------------------------------------------------------
 257    0:50   0.00   57.2    44    3.5   231     4.7   877.4    0.00 
 257    1:00   0.00   54.4    52    1.7   315     4.4   877.5    0.00 
 257    1:10   0.00   53.2    55    1.2    22     2.6   877.6    0.00 
 257    1:20   0.00   52.7    56    1.1   309     2.1   877.7    0.00 
 257    1:30   0.00   52.4    57    1.2   277     3.5   877.7    0.00 
 257    1:40   0.00   54.7    49    1.8   291     2.9   877.7    0.00 
 257    1:50   0.00   55.7    48    2.3   321     3.3   877.7    0.00 
 257    2:00   0.00   54.8    50    1.5    67     2.3   877.8    0.00 
 257    2:10   0.00   54.0    52    0.0     0     0.0   877.8    0.00 
 257    2:20   0.00   54.4    51    1.3   270     2.1   877.8    0.00 
 257    2:30   0.00   54.4    50    1.4   338     1.8   877.9    0.00 
 257    2:40   0.00   53.8    52    1.0   355     2.1   877.8    0.00 
 257    2:50   0.00   53.3    52    1.1   323     3.1   877.8    0.00 
 257    3:00   0.00   54.1    52    2.5   284     4.0   877.8    0.00 
 257    3:10   0.00   52.6    55    1.5    29     3.2   877.8    0.00 
 257    3:20   0.00   51.8    56    1.0    55     2.7   877.8    0.00 
 257    3:30   0.00   51.5    58    1.9   265     2.8   877.8    0.00 
 257    3:40   0.00   51.6    58    1.1   298     1.8   877.9    0.00 
 257    3:50   0.00   52.2    56    1.4   348     1.9   878.0    0.00 
 257    4:00   0.00   52.9    54    1.5   329     1.9   878.0    0.00 
 257    4:10   0.00   53.7    52    2.2   300     4.2   878.1    0.00 
 257    4:20   0.00   53.3    55    1.4   284     4.3   878.1    0.00 
 257    4:30   0.00   53.7    54    2.2   302     3.6   878.1    0.00 
 257    4:40   0.00   51.8    57    1.7   103     3.4   878.2    0.00 
 257    4:50   0.00   51.8    58    0.1   115     0.9   878.2    0.00 
 257    5:00   0.00   51.6    58    0.4    83     2.9   878.3    0.00 
 257    5:10   0.00   52.7    56    0.8    78     2.3   878.4    0.00 
 257    5:20   0.00   51.8    58    0.0     0     0.0   878.4    0.00 
 257    5:30   0.00   51.1    59    1.4    76     2.8   878.5    0.00 
 257    5:40   0.00   51.0    61    1.1   263     2.4   878.5    0.00 
 257    5:50   0.01   51.2    60    1.5   252     2.8   878.6    0.00 
 257    6:00   0.02   49.4    65    1.6   206     2.6   878.8    0.00 
 257    6:10   0.04   49.8    65    1.0   236     2.0   878.8    0.00 
 257    6:20   0.08   51.3    62    1.5   100     4.7   878.9    0.00 
 257    6:30   0.09   53.3    61    0.6   102     2.0   879.1    0.00 
 257    6:40   0.10   55.8    60    0.0    96     0.7   879.1    0.00 
 257    6:50   0.17   58.8    52    0.7   101     1.5   878.9    0.00 
 257    7:00   0.25   62.7    45    0.0   104     0.8   878.9    0.00 
 257    7:10   0.22   67.4    38    0.0     0     0.0   878.9    0.00 
 257    7:20   0.28   67.5    40    0.0    56     1.0   879.0    0.00 
 257    7:30   0.31   69.7    32    0.4    98     2.0   879.0    0.00 
 257    7:40   0.35   70.4    30    1.6    57     2.9   879.2    0.00 
 257    7:50   0.39   70.8    31    1.3    40     2.3   879.3    0.00 
 257    8:00   0.41   73.2    28    1.1   110     2.4   879.5    0.00 
 257    8:10   0.44   75.0    26    0.9   122     2.1   879.8    0.00 
 257    8:20   0.46   75.4    26    0.8    88     2.6   879.8    0.00 
 257    8:30   0.53   77.6    24    0.4   214     1.5   879.9    0.00 
 257    8:40   0.52   76.8    25    0.9   261     2.3   880.0    0.00 
 257    8:50   0.56   77.5    26    0.8   165     2.7   880.0    0.00 
 257    9:00   0.62   79.7    24    1.0   146     3.3   880.0    0.00 
 257    9:10   0.63   80.3    22    1.0   184     3.5   880.0    0.00 
 257    9:20   0.67   81.0    21    1.0   161     2.0   880.0    0.00 
 257    9:30   0.68   81.4    20    1.3   308     2.7   880.0    0.00 
 257    9:40   0.69   81.6    20    1.1   316     2.7   880.0    0.00 
 257    9:50   0.70   82.7    20    1.2   113     3.8   879.9    0.00 
 257   10:00   0.71   82.8    20    1.7   134     4.4   879.9    0.00 
 257   10:10   0.75   83.9    18    1.3   153     3.7   879.8    0.00 
 257   10:20   0.76   83.9    18    2.0   160     5.1   879.7    0.00 
 257   10:30   0.78   83.8    19    1.9   190     3.9   879.7    0.00 
 257   10:40   0.79   84.6    19    2.1   153     4.7   879.5    0.00 
 257   10:50   0.81   84.6    18    2.9    81     5.6   879.5    0.00 
 257   11:00   0.81   84.4    18    2.4    79     8.3   879.3    0.00 
 257   11:10   0.82   85.1    19    2.6    64     6.1   879.2    0.00 
 257   11:20   0.83   84.8    17    2.7   107     6.2   879.1    0.00 
 257   11:30   0.83   85.3    17    2.3    47     6.1   879.1    0.00 
 257   11:40   0.84   85.5    17    2.5   214     6.6   878.9    0.00 
 257   11:50   0.84   85.8    16    3.4   209     7.2   878.8    0.00 
 257   12:00   0.84   85.9    16    1.4   285     4.3   878.7    0.00 
 257   12:10   0.81   87.6    16    2.9   158     7.5   878.5    0.00 
 257   12:20   0.83   86.6    16    3.8   115     7.5   878.5    0.00 
 257   12:30   0.84   87.2    16    1.7    57     3.9   878.3    0.00 
 257   12:40   0.83   88.4    15    3.2    68    14.6   878.1    0.00 
 257   12:50   0.83   87.8    15    5.3    97    11.2   878.0    0.00 
 257   13:00   0.85   87.8    15    5.9    98    11.7   877.8    0.00 
 257   13:10   0.84   87.7    14    3.4    70    10.0   877.7    0.00 
 257   13:20   0.60   88.3    15    2.9    85     7.2   877.5    0.00 
 257   13:30   0.79   87.8    15    5.5   116    12.4   877.4    0.00 
 257   13:40   0.78   87.7    15    5.6   151    10.7   877.3    0.00 
 257   13:50   0.72   88.7    15    5.8   176    10.8   877.3    0.00 
 257   14:00   0.64   88.3    14    4.6   159     8.7   877.1    0.00 
 257   14:10   0.77   88.6    14    2.3    60     6.0   877.0    0.00 
 257   14:20   0.49   88.3    16    3.3    25     7.8   876.9    0.00 
 257   14:30   0.66   89.0    16    2.7    50     5.6   876.8    0.00 
 257   14:40   0.47   88.8    15    3.0   114     8.0   876.7    0.00 
 257   14:50   0.53   88.5    15    3.6    76     7.1   876.7    0.00 
 257   15:00   0.24   87.1    16    2.5    34     5.8   876.7    0.00 
 257   15:10   0.49   87.0    16    2.8    36     6.6   876.7    0.00 
 257   15:20   0.54   87.7    18    5.4   358     8.4   876.7    0.00 
 257   15:30   0.46   87.3    19    4.0    22     7.9   876.6    0.00 
 257   15:40   0.41   88.2    17    1.9   339     5.7   876.6    0.00 
 257   15:50   0.36   88.8    17    2.4     1     5.6   876.6    0.00 
 257   16:00   0.28   86.0    20    3.2    20     4.7   876.6    0.00 
 257   16:10   0.34   86.3    20    3.6     2     8.2   876.6    0.00 
 257   16:20   0.32   86.7    18    3.9    26     7.2   876.6    0.00 
 257   16:30   0.28   86.4    21    3.4   354     6.9   876.5    0.00 
 257   16:40   0.28   86.9    20    2.2   354     3.7   876.5    0.00 
 257   16:50   0.26   87.0    21    2.3   335     4.1   876.5    0.00 
 257   17:00   0.20   85.8    22    2.9   347     5.0   876.5    0.00 
 257   17:10   0.18   86.3    17    1.1    32     3.7   876.5    0.00 
 257   17:20   0.15   87.4    16    1.0    79     2.3   876.5    0.00 
 257   17:30   0.12   87.4    18    2.6   276     6.7   876.6    0.00 
 257   17:40   0.09   83.4    21    4.5   269     6.6   876.7    0.00 
 257   17:50   0.05   81.5    22    5.3   276     8.6   876.8    0.00 
 257   18:00   0.02   81.0    20    7.2   271    14.5   876.8    0.00 
 257   18:10   0.01   81.1    19    6.7   274    12.2   876.9    0.00 
 257   18:20   0.00   79.6    20    6.1   280    10.2   877.0    0.00 
 257   18:30   0.00   78.8    21    6.4   296    12.2   877.0    0.00 
 257   18:40   0.00   77.0    22    6.2   303    10.2   877.2    0.00 
 257   18:50   0.00   76.1    22    5.3   307     9.8   877.3    0.00 
 257   19:00   0.00   75.1    23    5.1   319     8.5   877.4    0.00 
 257   19:10   0.00   73.9    24    4.4   328     7.7   877.6    0.00 
 257   19:20   0.00   72.4    26    3.1   314     5.0   877.6    0.00 
 257   19:30   0.00   71.4    27    4.5   303     7.2   877.7    0.00 
 257   19:40   0.00   71.9    26    4.6   302     7.5   877.9    0.00 
 257   19:50   0.00   72.5    26    4.4   305     6.9   877.9    0.00 
 257   20:00   0.00   72.5    26    4.1   302     5.9   878.0    0.00 
 257   20:10   0.00   71.6    28    4.1   297     5.3   878.0    0.00 
 257   20:20   0.00   70.8    29    3.9   298     5.6   878.0    0.00 
 257   20:30   0.00   70.4    28    3.6   289     5.3   878.0    0.00 
 257   20:40   0.00   71.2    26    4.6   276     6.2   878.0    0.00 
 257   20:50   0.00   71.0    27    4.0   278     5.0   878.2    0.00 
 257   21:00   0.00   70.0    28    3.4   278     4.2   878.2    0.00 
 257   21:10   0.00   70.8    26    2.6   291     3.4   878.3    0.00 
 257   21:20   0.00   69.8    28    1.4   295     1.9   878.3    0.00 
 257   21:30   0.00   68.6    29    0.6   287     1.3   878.2    0.00 
 257   21:40   0.00   66.5    32    0.2   286     1.0   878.2    0.00 
 257   21:50   0.00   66.6    31    2.0   326     3.4   878.1    0.00 
 257   22:00   0.00   65.2    32    1.6   326     2.3   878.1    0.00 
 257   22:10   0.00   64.6    33    0.7     5     3.9   878.1    0.00 
 257   22:20   0.00   62.9    36    6.9    91     9.3   878.2    0.00 
 257   22:30   0.00   65.6    31    3.1   114     7.9   878.4    0.00 
 257   22:40   0.00   66.8    29    1.3   111     2.8   878.4    0.00 
 257   22:50   0.00   67.3    29    1.5    47     3.4   878.5    0.00 
 257   23:00   0.00   66.3    30    0.8   320     2.1   878.5    0.00 
 257   23:10   0.00   63.8    34    0.8   101     1.9   878.5    0.00 
 257   23:20   0.00   63.9    33    0.0    76     0.5   878.5    0.00 
 257   23:30   0.00   65.0    31    0.0     0     0.0   878.6    0.00 
 257   23:40   0.00   61.6    39    1.6    96     3.3   878.6    0.00 
 257   23:50   0.00   57.1    49    2.8   202     4.4   878.6    0.00 
 258    0:00   0.00   58.4    47    1.8   235     2.6   878.6    0.00 
 258    0:10   0.00   57.9    48    0.9   175     1.8   878.6    0.00 
 258    0:20   0.00   59.1    43    0.1   154     0.7   878.6    0.00 
 258    0:30   0.00   58.5    45    0.2   213     1.2   878.7    0.00 
 258    0:40   0.00   59.4    42    0.4   216     1.2   878.7    0.00 

Return to south Mason Valley graphs page.


Western Regional Climate Center,wrcc@dri.edu